createdAt,value
2019-03-11T00:00:31.741Z,1.32
2019-03-11T00:02:59.885Z,1.05
2019-03-11T00:05:28.087Z,1.20
2019-03-11T00:07:56.704Z,1.70
2019-03-11T00:10:25.254Z,1.10
2019-03-11T00:12:53.801Z,2.77
2019-03-11T00:15:22.198Z,1.05
2019-03-11T00:17:50.550Z,1.10
2019-03-11T00:20:18.574Z,1.45
2019-03-11T00:22:46.602Z,1.72
2019-03-11T00:25:14.653Z,1.60
2019-03-11T00:27:42.586Z,1.25
2019-03-11T00:30:11.370Z,1.52
2019-03-11T00:32:39.505Z,1.10
2019-03-11T00:35:07.851Z,1.22
2019-03-11T00:37:36.054Z,1.40
2019-03-11T00:40:05.127Z,1.05
2019-03-11T00:42:33.661Z,2.50
2019-03-11T00:45:01.760Z,1.55
2019-03-11T00:47:29.944Z,2.08
2019-03-11T00:49:57.955Z,1.05
2019-03-11T00:52:26.529Z,1.32
2019-03-11T00:54:56.530Z,1.22
2019-03-11T00:57:24.591Z,1.00
2019-03-11T00:59:53.004Z,1.25
2019-03-11T01:02:21.366Z,1.30
2019-03-11T01:04:49.418Z,1.70
2019-03-11T01:07:17.487Z,2.10
2019-03-11T01:09:45.651Z,1.45
2019-03-11T01:12:14.340Z,1.87
2019-03-11T01:14:42.770Z,1.32
2019-03-11T01:17:11.151Z,2.22
2019-03-11T01:19:39.722Z,2.08
2019-03-11T01:22:08.194Z,1.87
2019-03-11T01:24:36.315Z,1.42
2019-03-11T01:27:04.559Z,1.10
2019-03-11T01:29:32.756Z,1.30
2019-03-11T01:32:01.131Z,1.57
2019-03-11T01:34:29.603Z,1.65
2019-03-11T01:36:58.226Z,1.42
2019-03-11T01:39:26.898Z,0.90
2019-03-11T01:41:55.893Z,1.92
2019-03-11T01:44:24.581Z,2.98
2019-03-11T01:46:53.701Z,1.20
2019-03-11T01:49:24.047Z,3.55
2019-03-11T01:51:53.913Z,2.00
2019-03-11T01:54:23.709Z,1.80
2019-03-11T01:56:54.003Z,1.95
2019-03-11T01:59:23.580Z,1.25
2019-03-11T02:01:54.393Z,2.17
2019-03-11T02:04:22.838Z,1.55
2019-03-11T02:06:51.326Z,1.50
2019-03-11T02:09:19.761Z,1.70
2019-03-11T02:11:47.826Z,1.45
2019-03-11T02:14:16.053Z,1.37
2019-03-11T02:16:44.256Z,2.30
2019-03-11T02:19:12.562Z,2.08
2019-03-11T02:21:40.689Z,2.17
2019-03-11T02:24:09.131Z,2.17
2019-03-11T02:26:37.466Z,1.72
2019-03-11T02:29:05.785Z,1.67
2019-03-11T02:31:34.505Z,2.65
2019-03-11T02:34:02.965Z,1.70
2019-03-11T02:36:31.063Z,2.87
2019-03-11T02:38:59.034Z,2.58
2019-03-11T02:41:27.215Z,2.40
2019-03-11T02:43:55.522Z,1.92
2019-03-11T02:46:23.592Z,2.15
2019-03-11T02:48:51.534Z,2.90
2019-03-11T02:51:20.107Z,2.42
2019-03-11T02:53:48.219Z,2.40
2019-03-11T02:56:16.184Z,1.50
2019-03-11T02:58:44.372Z,1.80
2019-03-11T03:01:47.394Z,2.92
2019-03-11T03:04:19.783Z,1.52
2019-03-11T03:06:48.187Z,2.17
2019-03-11T03:09:16.642Z,2.00
2019-03-11T03:11:45.240Z,2.33
2019-03-11T03:14:13.493Z,1.98
2019-03-11T03:16:41.523Z,2.85
2019-03-11T03:19:09.595Z,2.20
2019-03-11T03:21:37.677Z,2.42
2019-03-11T03:24:05.739Z,2.50
2019-03-11T03:26:52.206Z,1.75
2019-03-11T03:29:20.392Z,2.20
2019-03-11T03:31:48.490Z,2.17
2019-03-11T03:34:16.882Z,1.62
2019-03-11T03:36:45.052Z,2.22
2019-03-11T03:39:13.024Z,2.27
2019-03-11T03:41:41.054Z,2.37
2019-03-11T03:44:09.584Z,1.35
2019-03-11T03:46:37.610Z,1.32
2019-03-11T03:49:05.719Z,1.30
2019-03-11T03:51:33.745Z,1.20
2019-03-11T03:54:01.819Z,1.70
2019-03-11T03:56:30.330Z,1.70
2019-03-11T03:58:58.415Z,1.20
2019-03-11T04:01:26.583Z,2.05
2019-03-11T04:03:54.557Z,1.50
2019-03-11T04:06:22.981Z,1.20
2019-03-11T04:08:51.347Z,1.95
2019-03-11T04:11:19.804Z,1.40
2019-03-11T04:13:47.842Z,1.87
2019-03-11T04:16:16.206Z,1.70
2019-03-11T04:18:55.541Z,1.45
2019-03-11T04:21:23.761Z,1.32
2019-03-11T04:23:53.558Z,1.70
2019-03-11T04:26:28.404Z,1.67
2019-03-11T04:28:57.271Z,1.17
2019-03-11T04:31:25.311Z,1.25
2019-03-11T04:33:53.468Z,1.22
2019-03-11T04:36:21.949Z,1.30
2019-03-11T04:38:50.011Z,0.68
2019-03-11T04:41:18.163Z,0.80
2019-03-11T04:43:46.158Z,1.05
2019-03-11T04:46:14.404Z,1.27
2019-03-11T04:48:42.421Z,1.25
2019-03-11T04:51:10.953Z,0.60
2019-03-11T04:53:39.002Z,0.60
2019-03-11T04:56:07.147Z,0.50
2019-03-11T04:58:35.190Z,0.82
2019-03-11T05:01:03.286Z,0.50
2019-03-11T05:03:31.698Z,0.50
2019-03-11T05:05:59.781Z,0.50
2019-03-11T05:08:28.071Z,0.47
2019-03-11T05:10:56.597Z,0.45
2019-03-11T05:13:24.684Z,0.57
2019-03-11T05:15:53.078Z,0.40
2019-03-11T05:18:21.072Z,0.55
2019-03-11T05:20:49.294Z,0.55
2019-03-11T05:23:17.404Z,0.50
2019-03-11T05:25:48.431Z,0.50
2019-03-11T05:28:17.563Z,0.50
2019-03-11T05:30:45.600Z,0.40
2019-03-11T05:33:13.779Z,0.80
2019-03-11T05:35:43.299Z,0.50
2019-03-11T05:38:11.450Z,0.50
2019-03-11T05:40:39.720Z,0.55
2019-03-11T05:43:08.080Z,0.75
2019-03-11T05:45:36.501Z,0.50
2019-03-11T05:48:04.950Z,0.55
2019-03-11T05:50:33.918Z,1.10
2019-03-11T05:53:02.190Z,0.47
2019-03-11T05:55:30.848Z,0.47
2019-03-11T05:57:58.713Z,0.60
2019-03-11T06:00:28.338Z,0.70
2019-03-11T06:02:56.738Z,0.60
2019-03-11T06:05:24.700Z,0.57
2019-03-11T06:07:53.037Z,1.40
2019-03-11T06:10:23.862Z,0.60
2019-03-11T06:12:54.674Z,0.80
2019-03-11T06:15:22.160Z,0.60
2019-03-11T06:17:50.278Z,0.70
2019-03-11T06:20:38.744Z,0.70
2019-03-11T06:23:08.718Z,0.60
2019-03-11T06:25:37.038Z,0.60
2019-03-11T06:28:07.432Z,0.60
2019-03-11T06:30:40.313Z,0.85
2019-03-11T06:33:13.529Z,0.55
2019-03-11T06:35:41.864Z,0.70
2019-03-11T06:38:09.888Z,0.60
2019-03-11T06:40:38.001Z,2.12
2019-03-11T06:43:06.231Z,1.12
2019-03-11T06:45:34.365Z,0.60
2019-03-11T06:48:02.318Z,0.70
2019-03-11T06:50:30.422Z,0.95
2019-03-11T06:52:58.791Z,0.80
2019-03-11T06:55:26.869Z,0.80
2019-03-11T06:57:55.160Z,0.90
2019-03-11T07:00:24.386Z,0.70
2019-03-11T07:02:52.278Z,0.70
2019-03-11T07:05:21.270Z,0.70
2019-03-11T07:07:49.667Z,1.00
2019-03-11T07:10:18.024Z,0.60
2019-03-11T07:12:46.279Z,0.75
2019-03-11T07:15:14.584Z,0.80
2019-03-11T07:17:44.288Z,0.70
2019-03-11T07:20:13.077Z,0.60
2019-03-11T07:22:41.645Z,0.70
2019-03-11T07:25:09.748Z,1.35
2019-03-11T07:27:38.125Z,0.75
2019-03-11T07:30:07.546Z,0.80
2019-03-11T07:32:35.834Z,0.62
2019-03-11T07:35:08.359Z,0.78
2019-03-11T07:37:34.968Z,0.60
2019-03-11T07:40:05.237Z,0.80
2019-03-11T07:42:33.762Z,0.82
2019-03-11T07:45:01.954Z,0.70
2019-03-11T07:47:29.887Z,0.80
2019-03-11T07:49:58.311Z,0.80
2019-03-11T07:52:26.460Z,0.70
2019-03-11T07:54:55.833Z,1.00
2019-03-11T07:57:24.266Z,1.52
2019-03-11T07:59:52.693Z,0.60
2019-03-11T08:02:20.814Z,0.90
2019-03-11T08:04:48.904Z,0.75
2019-03-11T08:07:17.250Z,0.70
2019-03-11T08:09:45.923Z,0.80
2019-03-11T08:12:14.228Z,0.70
2019-03-11T08:14:42.445Z,0.70
2019-03-11T08:17:10.603Z,0.70
2019-03-11T08:19:38.775Z,0.70
2019-03-11T08:22:06.900Z,0.60
2019-03-11T08:24:35.373Z,0.75
2019-03-11T08:27:03.381Z,1.60
2019-03-11T08:29:31.707Z,0.85
2019-03-11T08:32:01.794Z,0.70
2019-03-11T08:34:29.831Z,0.70
2019-03-11T08:36:58.292Z,0.80
2019-03-11T08:39:26.187Z,0.60
2019-03-11T08:41:54.530Z,0.98
2019-03-11T08:44:22.681Z,0.80
2019-03-11T08:46:51.174Z,0.80
2019-03-11T08:49:19.123Z,0.80
2019-03-11T08:51:47.315Z,0.93
2019-03-11T08:54:15.489Z,0.78
2019-03-11T08:56:44.493Z,0.72
2019-03-11T08:59:12.517Z,1.00
2019-03-11T09:01:42.631Z,0.70
2019-03-11T09:04:11.103Z,0.85
2019-03-11T09:06:42.142Z,0.70
2019-03-11T09:09:12.656Z,0.60
2019-03-11T09:11:40.719Z,0.65
2019-03-11T09:14:08.745Z,0.70
2019-03-11T09:16:36.738Z,0.88
2019-03-11T09:19:04.832Z,0.80
2019-03-11T09:21:40.025Z,0.60
2019-03-11T09:24:18.790Z,0.78
2019-03-11T09:26:39.026Z,0.60
2019-03-11T09:29:06.971Z,0.70
2019-03-11T09:31:35.094Z,1.00
2019-03-11T09:34:03.102Z,0.65
2019-03-11T09:36:31.568Z,0.60
2019-03-11T09:38:59.543Z,0.70
2019-03-11T09:41:27.465Z,0.70
2019-03-11T09:43:55.662Z,0.60
2019-03-11T09:46:23.791Z,0.60
2019-03-11T09:48:51.958Z,1.17
2019-03-11T09:51:20.081Z,0.50
2019-03-11T09:53:48.156Z,0.62
2019-03-11T09:56:16.280Z,0.50
2019-03-11T09:58:47.755Z,0.50
2019-03-11T10:01:16.259Z,1.05
2019-03-11T10:03:44.249Z,0.65
2019-03-11T10:06:12.518Z,0.60
2019-03-11T10:08:40.999Z,0.50
2019-03-11T10:11:08.978Z,0.70
2019-03-11T10:13:37.553Z,0.50
2019-03-11T10:16:05.655Z,0.60
2019-03-11T10:18:33.975Z,0.60
2019-03-11T10:21:02.379Z,0.55
2019-03-11T10:23:32.336Z,0.68
2019-03-11T10:26:00.606Z,0.53
2019-03-11T10:28:28.823Z,1.10
2019-03-11T10:30:56.798Z,0.80
2019-03-11T10:33:24.996Z,0.70
2019-03-11T10:35:53.312Z,0.80
2019-03-11T10:38:21.507Z,0.50
2019-03-11T10:40:49.964Z,0.55
2019-03-11T10:43:17.923Z,0.60
2019-03-11T10:45:46.079Z,1.07
2019-03-11T10:48:14.039Z,0.65
2019-03-11T10:50:42.295Z,0.60
2019-03-11T10:53:11.380Z,0.78
2019-03-11T10:55:40.186Z,0.68
2019-03-11T10:58:08.560Z,0.62
2019-03-11T11:00:37.050Z,0.82
2019-03-11T11:03:06.374Z,0.80
2019-03-11T11:05:34.527Z,0.60
2019-03-11T11:08:02.653Z,0.70
2019-03-11T11:10:36.176Z,0.50
2019-03-11T11:13:04.531Z,1.40
2019-03-11T11:15:32.881Z,0.60
2019-03-11T11:18:01.010Z,0.60
2019-03-11T11:20:29.122Z,1.00
2019-03-11T11:22:57.330Z,0.60
2019-03-11T11:25:25.764Z,0.72
2019-03-11T11:27:54.088Z,0.70
2019-03-11T11:30:22.227Z,0.85
2019-03-11T11:32:51.407Z,0.85
2019-03-11T11:35:19.471Z,0.60
2019-03-11T11:37:47.824Z,0.78
2019-03-11T11:40:19.498Z,0.75
2019-03-11T11:42:47.767Z,1.02
2019-03-11T11:45:17.336Z,0.85
2019-03-11T11:47:45.269Z,0.70
2019-03-11T11:50:16.212Z,0.60
2019-03-11T11:52:44.636Z,0.60
2019-03-11T11:55:13.391Z,1.00
2019-03-11T11:57:41.531Z,0.75
2019-03-11T12:00:18.316Z,1.40
2019-03-11T12:02:46.657Z,1.10
2019-03-11T12:05:15.233Z,0.78
2019-03-11T12:07:43.255Z,0.85
2019-03-11T12:10:13.836Z,0.70
2019-03-11T12:12:42.140Z,0.70
2019-03-11T12:15:11.283Z,0.60
2019-03-11T12:17:39.748Z,0.60
2019-03-11T12:20:12.559Z,0.60
2019-03-11T12:22:43.747Z,1.20
2019-03-11T12:25:13.691Z,0.68
2019-03-11T12:27:52.766Z,0.60
2019-03-11T12:30:15.786Z,0.65
2019-03-11T12:32:50.129Z,0.60
2019-03-11T12:35:18.772Z,0.90
2019-03-11T12:37:47.425Z,1.00
2019-03-11T12:40:16.078Z,0.98
2019-03-11T12:42:44.396Z,1.60
2019-03-11T12:45:13.559Z,0.70
2019-03-11T12:47:42.067Z,0.65
2019-03-11T12:50:16.050Z,0.90
2019-03-11T12:52:44.580Z,0.70
2019-03-11T12:55:13.134Z,0.80
2019-03-11T12:57:41.199Z,0.68
2019-03-11T13:00:12.839Z,0.80
2019-03-11T13:02:41.281Z,1.22
2019-03-11T13:05:09.890Z,1.12
2019-03-11T13:07:38.841Z,0.70
2019-03-11T13:10:09.413Z,0.88
2019-03-11T13:12:37.605Z,0.60
2019-03-11T13:15:08.465Z,0.80
2019-03-11T13:17:37.141Z,0.78
2019-03-11T13:20:09.071Z,0.72
2019-03-11T13:22:37.623Z,0.65
2019-03-11T13:25:07.405Z,0.60
2019-03-11T13:27:35.543Z,1.00
2019-03-11T13:30:04.422Z,1.42
2019-03-11T13:32:32.779Z,0.75
2019-03-11T13:35:01.332Z,0.70
2019-03-11T13:37:29.319Z,0.60
2019-03-11T13:39:57.407Z,1.47
2019-03-11T13:42:25.406Z,0.70
2019-03-11T13:44:53.400Z,0.57
2019-03-11T13:47:21.744Z,0.60
2019-03-11T13:49:49.950Z,0.80
2019-03-11T13:52:19.342Z,0.90
2019-03-11T13:54:47.428Z,0.72
2019-03-11T13:57:15.786Z,0.70
2019-03-11T13:59:44.535Z,0.65
2019-03-11T14:02:13.226Z,0.60
2019-03-11T14:04:41.817Z,0.57
2019-03-11T14:07:09.949Z,0.60
2019-03-11T14:09:38.175Z,0.90
2019-03-11T14:12:06.950Z,0.93
2019-03-11T14:14:35.160Z,0.80
2019-03-11T14:17:03.306Z,0.40
2019-03-11T14:19:31.741Z,0.95
2019-03-11T14:21:59.862Z,0.70
2019-03-11T14:24:28.577Z,0.68
2019-03-11T14:26:58.033Z,0.50
2019-03-11T14:29:27.741Z,0.80
2019-03-11T14:31:58.193Z,1.02
2019-03-11T14:34:26.817Z,0.93
2019-03-11T14:36:54.814Z,0.70
2019-03-11T14:39:23.267Z,0.70
2019-03-11T14:41:51.807Z,0.60
2019-03-11T14:44:20.539Z,0.68
2019-03-11T14:46:49.425Z,0.80
2019-03-11T14:49:18.221Z,0.60
2019-03-11T14:51:46.585Z,0.60
2019-03-11T14:54:14.595Z,0.80
2019-03-11T14:56:43.935Z,0.57
2019-03-11T14:59:14.237Z,0.70
2019-03-11T15:01:43.183Z,0.72
2019-03-11T15:04:11.624Z,0.80
2019-03-11T15:06:39.639Z,0.93
2019-03-11T15:09:14.412Z,0.53
2019-03-11T15:11:42.596Z,0.70
2019-03-11T15:14:11.192Z,0.60
2019-03-11T15:16:39.133Z,0.65
2019-03-11T15:19:10.329Z,0.80
2019-03-11T15:21:38.343Z,0.70
2019-03-11T15:24:07.158Z,0.80
2019-03-11T15:26:35.292Z,0.70
2019-03-11T15:29:03.770Z,0.60
2019-03-11T15:31:32.257Z,0.70
2019-03-11T15:34:00.955Z,0.98
2019-03-11T15:36:33.390Z,0.85
2019-03-11T15:38:59.734Z,0.75
2019-03-11T15:41:28.015Z,0.60
2019-03-11T15:43:56.444Z,0.80
2019-03-11T15:46:24.396Z,0.90
2019-03-11T15:48:52.600Z,0.60
2019-03-11T15:51:20.707Z,0.85
2019-03-11T15:53:48.663Z,0.80
2019-03-11T15:56:16.593Z,0.70
2019-03-11T15:58:44.944Z,0.62
2019-03-11T16:01:13.576Z,0.95
2019-03-11T16:03:41.746Z,1.22
2019-03-11T16:06:11.227Z,0.62
2019-03-11T16:08:39.791Z,0.65
2019-03-11T16:11:08.467Z,0.80
2019-03-11T16:13:36.579Z,0.70
2019-03-11T16:16:05.076Z,0.70
2019-03-11T16:18:33.833Z,0.90
2019-03-11T16:21:01.820Z,0.68
2019-03-11T16:23:30.541Z,1.30
2019-03-11T16:25:58.930Z,0.80
2019-03-11T16:28:28.051Z,0.70
2019-03-11T16:30:57.306Z,0.70
2019-03-11T16:33:25.406Z,0.70
2019-03-11T16:35:53.422Z,0.65
2019-03-11T16:38:21.765Z,0.80
2019-03-11T16:40:50.029Z,0.60
2019-03-11T16:43:18.140Z,0.70
2019-03-11T16:45:46.309Z,0.70
2019-03-11T16:48:15.327Z,0.68
2019-03-11T16:50:44.349Z,0.85
2019-03-11T16:53:13.112Z,1.42
2019-03-11T16:55:42.482Z,0.80
2019-03-11T16:58:10.553Z,0.55
2019-03-11T17:00:39.330Z,0.65
2019-03-11T17:03:08.290Z,0.60
2019-03-11T17:05:36.619Z,0.65
2019-03-11T17:08:04.962Z,0.60
2019-03-11T17:10:32.914Z,0.75
2019-03-11T17:13:00.953Z,0.60
2019-03-11T17:15:28.917Z,0.90
2019-03-11T17:17:57.636Z,0.80
2019-03-11T17:20:25.822Z,0.90
2019-03-11T17:22:59.864Z,1.17
2019-03-11T17:25:28.099Z,0.75
2019-03-11T17:27:56.100Z,0.70
2019-03-11T17:30:24.171Z,0.80
2019-03-11T17:32:52.596Z,0.80
2019-03-11T17:35:21.147Z,0.70
2019-03-11T17:37:49.001Z,0.85
2019-03-11T17:40:17.454Z,1.00
2019-03-11T17:42:45.733Z,1.10
2019-03-11T17:45:15.241Z,0.80
2019-03-11T17:47:43.704Z,0.70
2019-03-11T17:50:12.979Z,1.05
2019-03-11T17:52:41.030Z,0.70
2019-03-11T17:55:09.942Z,0.80
2019-03-11T17:57:38.516Z,0.70
2019-03-11T18:00:13.134Z,0.90
2019-03-11T18:02:41.735Z,0.70
2019-03-11T18:05:10.228Z,1.00
2019-03-11T18:07:38.732Z,0.70
2019-03-11T18:10:09.696Z,0.70
2019-03-11T18:12:37.817Z,0.75
2019-03-11T18:15:06.289Z,0.80
2019-03-11T18:17:34.905Z,0.60
2019-03-11T18:20:03.163Z,0.90
2019-03-11T18:22:31.509Z,0.75
2019-03-11T18:25:00.348Z,1.25
2019-03-11T18:27:28.397Z,0.90
2019-03-11T18:29:56.589Z,1.00
2019-03-11T18:32:24.767Z,0.80
2019-03-11T18:34:53.005Z,0.90
2019-03-11T18:37:24.493Z,1.25
2019-03-11T18:39:52.850Z,1.07
2019-03-11T18:42:25.141Z,0.90
2019-03-11T18:44:51.396Z,0.60
2019-03-11T18:47:19.928Z,0.72
2019-03-11T18:49:48.260Z,0.70
2019-03-11T18:52:16.305Z,0.85
2019-03-11T18:54:44.605Z,1.02
2019-03-11T18:57:12.850Z,0.70
2019-03-11T18:59:41.137Z,1.05
2019-03-11T19:02:09.415Z,0.80
2019-03-11T19:04:37.652Z,0.93
2019-03-11T19:07:05.895Z,1.00
2019-03-11T19:09:34.084Z,1.07
2019-03-11T19:12:02.571Z,1.55
2019-03-11T19:14:30.836Z,0.80
2019-03-11T19:16:58.984Z,0.80
2019-03-11T19:19:27.225Z,0.70
2019-03-11T19:21:55.614Z,0.90
2019-03-11T19:24:24.621Z,0.78
2019-03-11T19:26:52.749Z,0.78
2019-03-11T19:29:20.861Z,0.70
2019-03-11T19:31:49.024Z,0.72
2019-03-11T19:34:17.023Z,0.80
2019-03-11T19:36:45.357Z,0.70
2019-03-11T19:39:16.789Z,1.12
2019-03-11T19:41:45.197Z,0.80
2019-03-11T19:44:13.308Z,1.05
2019-03-11T19:46:41.563Z,1.02
2019-03-11T19:49:10.032Z,1.00
2019-03-11T19:51:38.039Z,1.15
2019-03-11T19:54:06.001Z,1.20
2019-03-11T19:56:34.125Z,0.80
2019-03-11T19:59:02.210Z,1.02
2019-03-11T20:01:30.729Z,0.90
2019-03-11T20:03:59.112Z,1.20
2019-03-11T20:06:27.481Z,0.95
2019-03-11T20:08:55.916Z,1.07
2019-03-11T20:11:25.056Z,1.30
2019-03-11T20:13:53.957Z,1.40
2019-03-11T20:16:23.087Z,0.90
2019-03-11T20:18:51.941Z,0.90
2019-03-11T20:21:20.163Z,0.90
2019-03-11T20:23:48.209Z,0.85
2019-03-11T20:26:18.514Z,1.00
2019-03-11T20:28:46.656Z,0.90
2019-03-11T20:31:14.768Z,0.80
2019-03-11T20:33:42.970Z,1.15
2019-03-11T20:36:20.253Z,0.85
2019-03-11T20:38:42.850Z,0.75
2019-03-11T20:41:11.428Z,0.88
2019-03-11T20:43:39.710Z,0.75
2019-03-11T20:46:07.840Z,0.90
2019-03-11T20:48:36.304Z,0.80
2019-03-11T20:51:04.639Z,0.90
2019-03-11T20:53:32.998Z,0.80
2019-03-11T20:56:01.284Z,1.35
2019-03-11T20:58:29.994Z,1.20
2019-03-11T21:00:58.070Z,2.37
2019-03-11T21:03:26.406Z,0.80
2019-03-11T21:05:55.026Z,1.30
2019-03-11T21:08:23.109Z,1.25
2019-03-11T21:10:51.112Z,1.00
2019-03-11T21:13:19.525Z,1.45
2019-03-11T21:15:47.915Z,0.90
2019-03-11T21:18:16.264Z,0.90
2019-03-11T21:20:44.443Z,1.00
2019-03-11T21:23:12.618Z,1.00
2019-03-11T21:25:40.717Z,0.90
2019-03-11T21:28:08.965Z,2.35
2019-03-11T21:30:37.525Z,1.57
2019-03-11T21:33:05.874Z,0.90
2019-03-11T21:35:33.936Z,1.00
2019-03-11T21:38:02.362Z,1.62
2019-03-11T21:40:31.430Z,1.15
2019-03-11T21:42:59.890Z,1.10
2019-03-11T21:45:33.994Z,0.80
2019-03-11T21:47:58.711Z,0.90
2019-03-11T21:50:30.249Z,1.20
2019-03-11T21:52:58.747Z,1.35
2019-03-11T21:55:28.927Z,1.40
2019-03-11T21:57:57.587Z,1.00
2019-03-11T22:00:34.375Z,1.20
2019-03-11T22:02:56.539Z,1.55
2019-03-11T22:05:25.510Z,0.90
2019-03-11T22:07:55.323Z,1.05
2019-03-11T22:10:23.696Z,1.47
2019-03-11T22:12:52.345Z,0.80
2019-03-11T22:15:21.090Z,1.62
2019-03-11T22:17:49.153Z,0.93
2019-03-11T22:20:20.972Z,1.00
2019-03-11T22:22:49.474Z,1.07
2019-03-11T22:25:18.202Z,1.00
2019-03-11T22:27:48.513Z,1.50
2019-03-11T22:30:20.059Z,1.10
2019-03-11T22:32:48.221Z,0.90
2019-03-11T22:35:16.588Z,1.92
2019-03-11T22:37:45.231Z,1.20
2019-03-11T22:40:19.636Z,1.45
2019-03-11T22:42:48.044Z,1.55
2019-03-11T22:45:20.139Z,1.30
2019-03-11T22:47:48.503Z,1.37
2019-03-11T22:50:18.003Z,1.05
2019-03-11T22:52:46.884Z,1.57
2019-03-11T22:55:15.622Z,1.20
2019-03-11T22:57:44.535Z,1.90
2019-03-11T23:00:41.316Z,0.90
2019-03-11T23:03:09.797Z,1.00
2019-03-11T23:05:38.045Z,1.12
2019-03-11T23:08:06.660Z,1.20
2019-03-11T23:10:34.774Z,1.10
2019-03-11T23:13:03.464Z,1.10
2019-03-11T23:15:31.507Z,1.00
2019-03-11T23:17:59.534Z,1.00
2019-03-11T23:20:28.038Z,0.90
2019-03-11T23:22:57.417Z,1.10
2019-03-11T23:25:26.715Z,1.22
2019-03-11T23:27:55.306Z,1.72
2019-03-11T23:30:23.396Z,1.30
2019-03-11T23:32:51.793Z,1.45
2019-03-11T23:35:19.992Z,1.70
2019-03-11T23:37:49.365Z,1.27
2019-03-11T23:40:18.323Z,1.50
2019-03-11T23:42:46.880Z,1.30
2019-03-11T23:45:20.530Z,1.10
2019-03-11T23:47:48.849Z,1.70
2019-03-11T23:50:19.489Z,1.02
2019-03-11T23:52:47.866Z,1.12
2019-03-11T23:55:16.149Z,0.82
2019-03-11T23:57:44.203Z,1.35
